Startpagina
METAR-TAF:

METAR-TAF

Vliegvelden :

Gran Canaria, Spanje

Aeropuerto de Gran Canaria

breedte: 27-56N, lengte: 015-23W, hoogte: 23 m

Actueel weer

Dit bericht is 37 minuten geleden gemaakt, om 20:30 UTC
Wind 21 kt uit het noorden
Temperatuur 18°C
Vochtigheid 68%
Druk 1023 hPa
Zicht 10 km of meer
Weinig wolken op 2500 ft
Gebroken wolken op 3500 ft

METAR: GCLP 162030Z 01021KT 9999 FEW025 BKN035 18/12 Q1023 NOSIG

Tijdstip: 21:07 (21:07 UTC)

Verwachting

Dit bericht is 1 uur en het 7 minuten geleden gemaakt, om 20:00 UTC
Verwachting geldig van 16 om 21 UTC tot 17 om 21 UTC
Wind 22 kt uit het noorden
Zicht 10 km of meer
Verspreide wolken op 3000 ft
Tijdelijke
van 16 om 21 UTC tot 17 om 10 UTC
Wind 23 kt uit het noorden met uitschieters tot 33 kt

TAF: GCLP 162000Z 1621/1721 01022KT 9999 SCT030 TX21/1714Z TN16/1706Z TEMPO 1621/1710 01023G33KT

Waarnemingen en weersverwachtingen van meer dan 4000 vliegvelden (METAR en TAF).

De beschikbare stations zijn de gele en rode punten op de kaart.

Ga met uw muis naar het station om de naam te zien.

Klik dan om waarnemingen en weersverwachtingen te zien.

kaart wijzigen: klik op de groene knoppen met een zwart kruis om in te zoomen, op de groene knop met een streepje om uit te zoomen of op de groene pijlen voor aangrenzende kaarten.


METAR-TAF: